This is the latest recevied weather packets stored in our database for station/object WASF. If no packets are shown the sender has not sent any weather packets the latest 10 day(s).
| Time | Temp. | Humidity | Pressure | Rain* | Wind** | Luminosity | Snow |
|---|---|---|---|---|---|---|---|
| 1788250199 | 25° C | 83% | 1 hPa | 0 mm | - | - | - |
| 1788248217 | 25° C | 83% | 1 hPa | 0 mm | - | - | - |
| 1788246230 | 26.11° C | 79% | 1 hPa | 0 mm | - | - | - |
| 1788244158 | 26.11° C | 79% | 1 hPa | 0 mm | - | - | - |
| 1788242153 | 27.22° C | 74% | 1 hPa | 0 mm | - | - | - |
| 1788240191 | 26.11° C | 79% | 1 hPa | 0 mm | - | - | - |
| 1788238228 | 27.22° C | 74% | 1 hPa | 0 mm | - | - | - |
| 1788236248 | 26.11° C | 79% | 1 hPa | 0 mm | - | - | - |
| 1788234284 | 27.22° C | 74% | 1 hPa | 0 mm | - | - | - |
| 1788232321 | 27.22° C | 74% | 1 hPa | 0 mm | - | - | - |
| 1788230354 | 27.78° C | 66% | 1 hPa | 0 mm | - | - | - |
| 1788228388 | 27.22° C | 70% | 1 hPa | 0 mm | - | - | - |
| 1788226421 | 27.22° C | 70% | 1 hPa | 0 mm | - | - | - |
| 1788224455 | 27.22° C | 74% | 1 hPa | 0 mm | - | - | - |
| 1788222479 | 26.11° C | 79% | 1 hPa | 0 mm | - | - | - |
| 1788220539 | 23.89° C | 83% | 1 hPa | 0 mm | - | - | - |
| 1788218587 | 23.89° C | 83% | 1 hPa | 0 mm | - | - | - |
| 1788216621 | 23.89° C | 83% | 1 hPa | 0 mm | - | - | - |
| 1788214685 | 23.89° C | 83% | 1 hPa | 0 mm | - | - | - |
| 1788212750 | 23.89° C | 83% | 1 hPa | 0 mm | - | - | - |
| 1788210804 | 23.89° C | 89% | 1 hPa | 0 mm | - | - | - |
| 1788208845 | 23.89° C | 89% | 1 hPa | 0 mm | - | - | - |
| 1788206910 | 23.89° C | 89% | 1 hPa | 0 mm | - | - | - |
| 1788204972 | 23.89° C | 94% | 1 hPa | 0 mm | - | - | - |
| 1788203037 | 23.89° C | 94% | 1 hPa | 0 mm | - | - | - |
* Rain latest hour (hover to see other rain measurements)
** Current wind speed in m/s (hover to see current wind gust speed)